createdAt,value
2017-10-30T00:04:40.770Z,6.80
2017-10-30T00:09:45.235Z,6.70
2017-10-30T00:14:49.759Z,6.70
2017-10-30T00:19:56.188Z,6.70
2017-10-30T00:25:02.325Z,6.70
2017-10-30T00:30:05.886Z,6.60
2017-10-30T00:35:08.956Z,6.60
2017-10-30T00:45:23.351Z,6.50
2017-10-30T00:50:27.110Z,6.50
2017-10-30T00:55:30.108Z,6.50
2017-10-30T01:00:34.536Z,6.50
2017-10-30T01:05:38.229Z,6.50
2017-10-30T01:10:42.044Z,6.40
2017-10-30T01:15:45.647Z,6.40
2017-10-30T01:20:50.106Z,6.40
2017-10-30T01:25:54.781Z,6.40
2017-10-30T01:30:58.949Z,6.30
2017-10-30T01:36:04.323Z,6.30
2017-10-30T01:41:08.081Z,6.30
2017-10-30T01:46:12.861Z,6.30
2017-10-30T01:51:15.555Z,6.30
2017-10-30T01:56:20.535Z,6.30
2017-10-30T02:01:25.333Z,6.30
2017-10-30T02:06:28.833Z,6.20
2017-10-30T02:11:33.503Z,6.20
2017-10-30T02:16:37.956Z,6.20
2017-10-30T02:21:41.052Z,6.20
2017-10-30T02:26:45.370Z,6.30
2017-10-30T02:31:50.246Z,6.30
2017-10-30T02:36:53.145Z,6.20
2017-10-30T02:41:56.645Z,6.30
2017-10-30T02:46:59.713Z,6.30
2017-10-30T02:52:05.001Z,6.30
2017-10-30T02:57:08.590Z,6.30
2017-10-30T03:02:12.252Z,6.30
2017-10-30T03:07:15.977Z,6.30
2017-10-30T03:12:19.597Z,6.30
2017-10-30T03:17:24.073Z,6.20
2017-10-30T03:27:35.561Z,6.20
2017-10-30T03:42:53.702Z,6.10
2017-10-30T03:48:01.188Z,6.20
2017-10-30T03:53:05.685Z,6.10
2017-10-30T03:58:10.075Z,6.10
2017-10-30T04:03:14.485Z,6.10
2017-10-30T04:08:18.296Z,6.10
2017-10-30T04:13:22.603Z,6.10
2017-10-30T04:18:26.993Z,6.10
2017-10-30T04:23:34.128Z,6.10
2017-10-30T04:28:38.445Z,6.10
2017-10-30T04:38:50.186Z,6.20
2017-10-30T04:43:53.451Z,6.20
2017-10-30T04:48:57.542Z,6.20
2017-10-30T04:54:01.078Z,6.20
2017-10-30T04:59:08.197Z,6.30
2017-10-30T05:04:12.721Z,6.30
2017-10-30T05:09:18.124Z,6.30
2017-10-30T05:14:21.896Z,6.30
2017-10-30T05:19:27.526Z,6.30
2017-10-30T05:24:32.791Z,6.30
2017-10-30T05:29:36.011Z,6.30
2017-10-30T05:34:39.953Z,6.40
2017-10-30T05:39:43.025Z,6.40
2017-10-30T05:49:53.686Z,6.40
2017-10-30T05:54:57.745Z,6.40
2017-10-30T06:00:03.322Z,6.40
2017-10-30T06:05:08.569Z,6.40
2017-10-30T06:10:12.561Z,6.40
2017-10-30T06:25:32.554Z,6.40
2017-10-30T06:30:37.663Z,6.40
2017-10-30T06:35:41.202Z,6.40
2017-10-30T06:40:45.789Z,6.40
2017-10-30T06:45:51.259Z,6.40
2017-10-30T06:50:54.742Z,6.40
2017-10-30T06:55:57.512Z,6.40
2017-10-30T07:01:01.713Z,6.40
2017-10-30T07:06:04.611Z,6.40
2017-10-30T07:11:07.256Z,6.40
2017-10-30T07:16:10.229Z,6.50
2017-10-30T07:21:13.161Z,6.50
2017-10-30T07:26:18.214Z,6.50
2017-10-30T07:31:22.521Z,6.50
2017-10-30T07:36:25.910Z,6.50
2017-10-30T07:41:31.098Z,6.60
2017-10-30T07:46:34.612Z,6.60
2017-10-30T07:51:39.151Z,6.70
2017-10-30T07:56:42.541Z,6.70
2017-10-30T08:01:46.678Z,6.80
2017-10-30T08:06:49.512Z,6.80
2017-10-30T08:11:52.888Z,6.90
2017-10-30T08:16:57.323Z,7.00
2017-10-30T08:22:01.554Z,7.00
2017-10-30T08:27:05.158Z,7.00
2017-10-30T08:32:09.395Z,7.10
2017-10-30T08:37:13.107Z,7.10
2017-10-30T08:42:16.604Z,7.10
2017-10-30T08:47:19.418Z,7.20
2017-10-30T08:52:22.681Z,7.40
2017-10-30T08:57:25.590Z,7.60
2017-10-30T09:02:29.620Z,7.80
2017-10-30T09:07:32.670Z,7.90
2017-10-30T09:12:35.430Z,8.10
2017-10-30T09:17:38.437Z,8.10
2017-10-30T09:22:41.753Z,8.20
2017-10-30T09:27:45.601Z,8.20
2017-10-30T09:32:48.463Z,8.20
2017-10-30T09:37:51.918Z,8.20
2017-10-30T09:42:55.706Z,8.10
2017-10-30T09:47:59.032Z,8.10
2017-10-30T09:53:03.494Z,8.10
2017-10-30T09:58:06.436Z,8.20
2017-10-30T10:03:09.057Z,8.30
2017-10-30T10:08:13.266Z,8.40
2017-10-30T10:13:16.685Z,8.40
2017-10-30T10:18:20.223Z,8.50
2017-10-30T10:23:23.156Z,8.50
2017-10-30T10:28:27.488Z,8.60
2017-10-30T10:33:30.496Z,8.70
2017-10-30T10:38:34.053Z,8.90
2017-10-30T10:43:37.065Z,9.20
2017-10-30T10:53:49.315Z,9.70
2017-10-30T10:58:53.631Z,9.90
2017-10-30T11:03:57.947Z,10.00
2017-10-30T11:09:02.228Z,10.30
2017-10-30T11:14:05.230Z,10.30
2017-10-30T11:19:08.357Z,10.50
2017-10-30T11:24:12.339Z,10.60
2017-10-30T11:29:17.172Z,10.90
2017-10-30T11:34:20.148Z,10.90
2017-10-30T11:39:24.630Z,11.00
2017-10-30T11:44:29.102Z,11.30
2017-10-30T11:49:33.077Z,11.40
2017-10-30T11:54:36.721Z,11.60
2017-10-30T11:59:39.530Z,11.80
2017-10-30T12:04:42.422Z,11.80
2017-10-30T12:09:45.831Z,11.80
2017-10-30T12:14:49.229Z,11.70
2017-10-30T12:19:52.587Z,11.60
2017-10-30T12:24:55.546Z,11.50
2017-10-30T12:29:58.507Z,11.40
2017-10-30T12:35:03.108Z,11.20
2017-10-30T12:40:06.458Z,11.20
2017-10-30T12:45:10.898Z,11.10
2017-10-30T12:50:14.338Z,11.00
2017-10-30T12:55:17.621Z,10.80
2017-10-30T13:00:20.346Z,10.70
2017-10-30T13:05:23.637Z,10.60
2017-10-30T13:10:26.260Z,10.50
2017-10-30T13:15:30.173Z,10.30
2017-10-30T13:20:32.885Z,10.30
2017-10-30T13:25:35.590Z,10.30
2017-10-30T13:30:38.556Z,10.10
2017-10-30T13:35:42.014Z,10.10
2017-10-30T13:40:44.678Z,10.00
2017-10-30T13:45:47.583Z,9.90
2017-10-30T13:50:50.551Z,9.90
2017-10-30T13:55:54.018Z,9.80
2017-10-30T14:00:57.496Z,9.70
2017-10-30T14:06:00.151Z,9.70
2017-10-30T14:11:03.435Z,9.80
2017-10-30T14:16:06.396Z,9.80
2017-10-30T14:21:09.927Z,9.80
2017-10-30T14:26:13.437Z,9.80
2017-10-30T14:31:16.183Z,9.80
2017-10-30T14:36:19.664Z,9.80
2017-10-30T14:41:23.152Z,9.70
2017-10-30T14:46:26.104Z,9.70
2017-10-30T14:51:28.739Z,9.60
2017-10-30T14:56:32.187Z,9.50
2017-10-30T15:01:35.134Z,9.50
2017-10-30T15:06:38.221Z,9.40
2017-10-30T15:11:41.170Z,9.30
2017-10-30T15:16:44.117Z,9.30
2017-10-30T15:21:47.810Z,9.20
2017-10-30T15:26:51.098Z,9.10
2017-10-30T15:31:54.639Z,9.00
2017-10-30T15:36:57.340Z,9.00
2017-10-30T15:42:00.017Z,8.90
2017-10-30T15:47:02.890Z,8.90
2017-10-30T15:52:06.203Z,8.70
2017-10-30T15:57:09.556Z,8.60
2017-10-30T16:07:20.739Z,8.50
2017-10-30T16:12:24.508Z,8.30
2017-10-30T16:17:27.140Z,8.30
2017-10-30T16:22:30.436Z,8.20
2017-10-30T16:27:33.861Z,8.10
2017-10-30T16:32:36.823Z,8.10
2017-10-30T16:37:40.190Z,8.00
2017-10-30T16:42:43.476Z,7.90
2017-10-30T16:47:46.387Z,7.80
2017-10-30T16:52:49.830Z,7.70
2017-10-30T16:57:54.268Z,7.70
2017-10-30T17:03:00.298Z,7.60
2017-10-30T17:08:03.313Z,7.60
2017-10-30T17:13:07.614Z,7.50
2017-10-30T17:18:11.044Z,7.40
2017-10-30T17:23:13.980Z,7.40
2017-10-30T17:28:16.807Z,7.30
2017-10-30T17:33:20.184Z,7.20
2017-10-30T17:38:23.571Z,7.20
2017-10-30T17:43:27.059Z,7.20
2017-10-30T17:48:29.967Z,7.10
2017-10-30T17:58:43.529Z,7.00
2017-10-30T18:03:47.643Z,6.90
2017-10-30T18:08:50.492Z,6.90
2017-10-30T18:13:55.433Z,6.80
2017-10-30T18:18:59.950Z,6.80
2017-10-30T18:24:03.856Z,6.80
2017-10-30T18:29:06.678Z,6.70
2017-10-30T18:34:10.081Z,6.70
2017-10-30T18:39:13.033Z,6.60
2017-10-30T18:44:16.048Z,6.60
2017-10-30T18:49:18.769Z,6.50
2017-10-30T18:54:23.935Z,6.50
2017-10-30T18:59:30.061Z,6.40
2017-10-30T19:04:32.804Z,6.40
2017-10-30T19:09:35.784Z,6.40
2017-10-30T19:14:39.190Z,6.30
2017-10-30T19:19:42.523Z,6.30
2017-10-30T19:24:47.737Z,6.30
2017-10-30T19:29:50.620Z,6.20
2017-10-30T19:34:53.567Z,6.20
2017-10-30T19:39:58.010Z,6.20
2017-10-30T19:45:00.800Z,6.20
2017-10-30T19:50:04.445Z,6.20
2017-10-30T19:55:08.049Z,6.20
2017-10-30T20:00:12.098Z,6.20
2017-10-30T20:05:21.195Z,6.20
2017-10-30T20:10:30.510Z,6.20
2017-10-30T20:15:35.006Z,6.20
2017-10-30T20:20:38.877Z,6.20
2017-10-30T20:25:42.112Z,6.10
2017-10-30T20:30:45.124Z,6.10
2017-10-30T20:35:48.675Z,6.10
2017-10-30T20:40:51.537Z,6.10
2017-10-30T20:45:55.003Z,6.00
2017-10-30T20:50:58.441Z,6.00
2017-10-30T20:56:02.158Z,5.90
2017-10-30T21:01:05.971Z,5.80
2017-10-30T21:06:10.386Z,5.80
2017-10-30T21:11:13.737Z,5.80
2017-10-30T21:16:17.160Z,5.80
2017-10-30T21:21:20.540Z,5.70
2017-10-30T21:26:23.895Z,5.70
2017-10-30T21:31:26.761Z,5.60
2017-10-30T21:36:30.356Z,5.60
2017-10-30T21:41:34.589Z,5.50
2017-10-30T21:46:37.484Z,5.50
2017-10-30T21:51:41.922Z,5.50
2017-10-30T21:56:46.214Z,5.40
2017-10-30T22:01:49.618Z,5.40
2017-10-30T22:06:52.874Z,5.30
2017-10-30T22:11:55.762Z,5.30
2017-10-30T22:16:59.992Z,5.20
2017-10-30T22:22:04.311Z,5.20
2017-10-30T22:27:07.292Z,5.20
2017-10-30T22:37:19.125Z,5.10
2017-10-30T22:42:22.818Z,5.10
2017-10-30T22:47:26.165Z,5.10
2017-10-30T22:52:30.350Z,5.10
2017-10-30T22:57:33.243Z,5.10
2017-10-30T23:02:36.652Z,5.10
2017-10-30T23:07:39.935Z,5.10
2017-10-30T23:12:42.873Z,5.10
2017-10-30T23:17:47.833Z,5.10
2017-10-30T23:22:51.453Z,5.10
2017-10-30T23:27:55.145Z,5.10
2017-10-30T23:32:57.849Z,5.10
2017-10-30T23:38:01.252Z,5.20
2017-10-30T23:43:04.259Z,5.20
2017-10-30T23:48:07.060Z,5.20
2017-10-30T23:53:10.338Z,5.20
2017-10-30T23:58:13.220Z,5.20
